Kapalua-West, HI

1:35 AM HST on August 27, 2014 (GMT -1000)
The Ridge at Kapalua | Change Station
CLOSE
Current Station
Personal Weather Station
Location: Kapalua, HI
Elevation: 100 ft
Nearby Weather Stations

Elev 100 ft 21.00 °N, 156.66 °W | Updated 2 minutes ago

Overcast
Overcast
73.8 °F
Feels Like 74 °F
N
2.9
Wind Variable Wind from East
Gusts 3.0 mph

Today
High -- | Low -- °F
--% Chance of Precip.
Yesterday
High -- | Low -- °F
Precip. -- in
6:09 AM 6:46 PM
Waxing Crescent, 3% visible
Pressure 29.94 in
Visibility 10.0 miles
Clouds Overcast 6500 ft
Heat Index 74 °F
Dew Point 67 °F
Humidity 80%
Rainfall 0.00 in
Snow Depth Not available.
UV 0 out of 12
Pollen Not available.
Air Quality Not available.
Flu Activity Not available.
METAR PHOG 271054Z AUTO 03011KT 10SM OVC065 25/19 A2992 RMK AO2 SLP138 T02500189 TSNO $

More Conditions Fewer Conditions

Pressure 29.94 in
Visibility 10.0 miles
Clouds Overcast 6500 ft
Heat Index 74 °F
Dew Point 67 °F
Humidity 80%
Rainfall 0.00 in
Snow Depth Not available.
UV 0 out of 12
Pollen Not available.
Air Quality Not available.
Flu Activity Not available.
METAR PHOG 271054Z AUTO 03011KT 10SM OVC065 25/19 A2992 RMK AO2 SLP138 T02500189 TSNO $

More Conditions Fewer Conditions

10-Day Weather Forecast

Almanac

Astronomy

Aug. 27, 2014 Rise Set
Actual Time 6:09 AM HST 6:46 PM HST
Civil Twilight 5:46 AM HST 7:09 PM HST
Nautical Twilight 5:20 AM HST 7:35 PM HST
Astronomical Twilight 4:53 AM HST 8:02 PM HST
Moon 7:54 AM HST 8:09 PM HST
Length of Visible Light 13h 22m
Length of Day
12h 37m
Tomorrow will be 1m 8s shorter.
Waxing Crescent, 3% of the Moon is Illuminated
Today
Waxing Crescent
Sep 2
First Quarter
Sep 8
Full
Sep 15
Last Quarter
Sep 24
New

Today's Extremes

State Highs State Lows

Community

WunderPhotos

Upload Photos

1,747,670 photos uploaded!

Nearby

Snow Depth

Station Depth Elevation
No new snow has been reported.

Earthquake Activity

City Distance Mag. Time & Date
No recent earthquake activity has been reported nearby.
Minimum magnitude displayed is 2.5.

Coastal Water Temperatures

Place Temperature
No Stations Reporting

Nearby Weather Stations